Time;durP1;ratioP1;P1;durP2;ratioP2;P2;SDS_P1;SDS_P2;PMS_P1;PMS_P2;Temp;Humidity;BMP_temperature;BMP_pressure;BME280_temperature;BME280_humidity;BME280_pressure;Samples;Min_cycle;Max_cycle;Signal;HPM_P1;HPM_P2
2021/11/26 00:01:33;;;;;;;134.10;11.38;;;;;;;;;;4994700;28;20065;-42
2021/11/26 00:04:00;;;;;;;110.15;9.43;;;;;;;;;;5000280;28;20078;-41
2021/11/26 00:06:28;;;;;;;81.90;9.38;;;;;;;;;;5001298;28;20030;-42
2021/11/26 00:08:55;;;;;;;114.03;10.30;;;;;;;;;;5015024;28;20144;-42
2021/11/26 00:11:22;;;;;;;84.63;8.93;;;;;;;;;;5010858;28;20022;-40
2021/11/26 00:13:59;;;;;;;76.10;7.63;;;;;;;;;;5015204;28;20045;-39
2021/11/26 00:19:05;;;;;;;84.57;8.43;;;;;;;;;;5088890;22;20061;-41
2021/11/26 00:21:33;;;;;;;81.80;8.90;;;;;;;;;;5022281;28;20018;-39
2021/11/26 00:24:00;;;;;;;78.90;7.82;;;;;;;;;;5025558;28;20025;-39
2021/11/26 00:26:27;;;;;;;95.40;11.77;;;;;;;;;;5016157;28;20018;-39
2021/11/26 00:28:54;;;;;;;78.82;8.23;;;;;;;;;;5024144;28;20021;-40
2021/11/26 00:31:22;;;;;;;60.60;7.55;;;;;;;;;;5021899;28;20036;-41
2021/11/26 00:33:49;;;;;;;61.50;7.57;;;;;;;;;;5030693;28;20558;-40
2021/11/26 00:36:16;;;;;;;58.45;7.65;;;;;;;;;;5028052;28;20061;-39
2021/11/26 00:38:43;;;;;;;72.68;9.27;;;;;;;;;;5022089;28;20083;-39
2021/11/26 00:41:10;;;;;;;70.38;8.65;;;;;;;;;;5020277;28;20104;-40
2021/11/26 00:43:37;;;;;;;79.57;9.07;;;;;;;;;;5020361;28;20112;-41
2021/11/26 00:46:04;;;;;;;62.20;9.18;;;;;;;;;;5023551;28;20046;-39
2021/11/26 00:48:31;;;;;;;70.07;9.52;;;;;;;;;;5029273;28;20111;-39
2021/11/26 00:50:58;;;;;;;95.68;10.48;;;;;;;;;;5023336;28;20018;-40
2021/11/26 00:53:25;;;;;;;75.55;11.77;;;;;;;;;;5031124;28;20036;-40
2021/11/26 00:55:52;;;;;;;54.42;10.02;;;;;;;;;;5023715;28;20489;-40
2021/11/26 00:58:19;;;;;;;72.55;12.07;;;;;;;;;;5023050;28;20669;-40
2021/11/26 01:00:46;;;;;;;78.97;13.27;;;;;;;;;;5019363;28;20026;-41
2021/11/26 01:03:14;;;;;;;82.43;14.93;;;;;;;;;;5025297;28;20030;-41
2021/11/26 01:05:40;;;;;;;84.85;15.63;;;;;;;;;;5017452;28;20032;-42
2021/11/26 01:08:08;;;;;;;83.78;14.95;;;;;;;;;;5023551;28;20057;-42
2021/11/26 01:10:35;;;;;;;91.65;17.65;;;;;;;;;;5029419;28;20060;-40
2021/11/26 01:13:02;;;;;;;95.50;17.20;;;;;;;;;;5029525;28;20113;-40
2021/11/26 01:15:31;;;;;;;154.90;21.38;;;;;;;;;;5016210;28;20026;-41
2021/11/26 01:17:58;;;;;;;143.35;20.42;;;;;;;;;;5019322;28;20037;-41
2021/11/26 01:20:26;;;;;;;142.07;18.75;;;;;;;;;;5023455;28;20057;-40
2021/11/26 01:22:53;;;;;;;155.00;18.15;;;;;;;;;;5021163;28;20063;-40
2021/11/26 01:25:21;;;;;;;127.72;19.23;;;;;;;;;;5016130;28;20022;-40
2021/11/26 01:27:48;;;;;;;134.98;16.85;;;;;;;;;;5023046;28;20017;-41
2021/11/26 01:30:37;;;;;;;137.48;18.27;;;;;;;;;;5026581;28;20030;-40
2021/11/26 01:33:08;;;;;;;143.55;18.17;;;;;;;;;;5028434;28;20033;-42
2021/11/26 01:35:36;;;;;;;115.32;16.88;;;;;;;;;;5028734;28;20064;-40
2021/11/26 01:38:07;;;;;;;168.77;18.40;;;;;;;;;;5029887;28;20148;-43
2021/11/26 01:40:34;;;;;;;138.20;17.83;;;;;;;;;;5029921;28;20080;-39
2021/11/26 01:43:03;;;;;;;172.27;17.77;;;;;;;;;;5029776;28;20029;-39
2021/11/26 01:45:30;;;;;;;137.93;17.98;;;;;;;;;;5031938;28;20052;-40
2021/11/26 01:47:57;;;;;;;155.77;17.30;;;;;;;;;;5030895;28;20029;-40
2021/11/26 01:50:24;;;;;;;143.85;17.05;;;;;;;;;;5031196;28;20029;-40
2021/11/26 01:52:51;;;;;;;125.22;16.52;;;;;;;;;;5031688;28;20100;-40
2021/11/26 01:55:19;;;;;;;126.88;16.50;;;;;;;;;;5030801;28;20060;-41
2021/11/26 01:57:46;;;;;;;127.80;15.23;;;;;;;;;;5031503;28;20033;-40
2021/11/26 02:00:15;;;;;;;170.55;18.02;;;;;;;;;;5031315;28;20075;-40
2021/11/26 02:02:42;;;;;;;146.80;15.45;;;;;;;;;;5030471;28;20033;-40
2021/11/26 02:05:09;;;;;;;121.25;15.10;;;;;;;;;;5028784;28;20104;-40
2021/11/26 02:07:38;;;;;;;117.63;14.85;;;;;;;;;;5029773;28;20029;-40
2021/11/26 02:10:05;;;;;;;100.43;14.73;;;;;;;;;;5028465;28;20079;-40
2021/11/26 02:12:32;;;;;;;116.38;15.15;;;;;;;;;;5028158;28;20116;-40
2021/11/26 02:14:59;;;;;;;125.22;12.98;;;;;;;;;;5029086;28;20378;-40
2021/11/26 02:17:27;;;;;;;118.05;13.10;;;;;;;;;;5026622;28;20784;-40
2021/11/26 02:19:57;;;;;;;120.68;14.93;;;;;;;;;;5031278;28;20362;-42
2021/11/26 02:22:24;;;;;;;124.90;13.77;;;;;;;;;;5030542;28;20389;-41
2021/11/26 02:24:51;;;;;;;107.38;14.05;;;;;;;;;;5029817;28;20400;-41
2021/11/26 02:27:19;;;;;;;121.38;13.70;;;;;;;;;;5021926;28;20061;-44
2021/11/26 02:29:56;;;;;;;93.93;12.52;;;;;;;;;;5017962;28;20132;-40
2021/11/26 02:32:24;;;;;;;107.30;12.95;;;;;;;;;;5010725;28;20021;-42
2021/11/26 02:34:53;;;;;;;125.93;12.85;;;;;;;;;;5026641;28;20030;-39
2021/11/26 02:37:20;;;;;;;95.53;11.48;;;;;;;;;;5030767;28;20053;-40
2021/11/26 02:39:47;;;;;;;91.50;12.05;;;;;;;;;;5030356;28;20034;-41
2021/11/26 02:42:24;;;;;;;95.70;11.43;;;;;;;;;;5031005;28;20477;-41
2021/11/26 02:44:50;;;;;;;105.07;11.23;;;;;;;;;;5029447;28;20072;-39
2021/11/26 02:47:18;;;;;;;80.32;12.15;;;;;;;;;;5029726;28;20021;-41
2021/11/26 02:49:45;;;;;;;96.15;12.55;;;;;;;;;;5030334;28;20025;-40
2021/11/26 02:52:12;;;;;;;65.95;14.20;;;;;;;;;;5030322;28;20063;-42
2021/11/26 02:54:39;;;;;;;80.63;13.75;;;;;;;;;;5030427;28;20108;-40
2021/11/26 02:57:05;;;;;;;77.53;13.98;;;;;;;;;;5030428;28;20112;-40
2021/11/26 02:59:32;;;;;;;67.53;11.57;;;;;;;;;;5030600;28;20124;-40
2021/11/26 03:02:01;;;;;;;66.18;11.80;;;;;;;;;;5028046;28;20017;-42
2021/11/26 03:04:40;;;;;;;59.22;12.02;;;;;;;;;;5086910;27;20419;-40
2021/11/26 03:07:08;;;;;;;68.38;10.95;;;;;;;;;;5087102;28;20119;-44
2021/11/26 03:09:39;;;;;;;93.82;12.20;;;;;;;;;;5087285;28;20023;-44
2021/11/26 03:12:07;;;;;;;54.45;11.27;;;;;;;;;;5086946;28;20012;-43
2021/11/26 03:14:34;;;;;;;55.97;11.75;;;;;;;;;;5081733;28;20029;-41
2021/11/26 03:17:01;;;;;;;67.45;10.57;;;;;;;;;;5083744;28;20016;-42
2021/11/26 03:19:28;;;;;;;57.53;9.90;;;;;;;;;;5087290;28;20372;-44
2021/11/26 03:21:55;;;;;;;47.55;8.95;;;;;;;;;;5069904;28;20070;-42
2021/11/26 03:24:22;;;;;;;51.95;10.07;;;;;;;;;;5066154;28;20434;-42
2021/11/26 03:26:49;;;;;;;53.00;9.85;;;;;;;;;;5064695;28;20534;-41
2021/11/26 03:29:16;;;;;;;59.08;10.10;;;;;;;;;;5073486;28;20024;-42
2021/11/26 03:31:43;;;;;;;53.60;9.07;;;;;;;;;;5079259;28;20024;-41
2021/11/26 03:34:10;;;;;;;50.30;9.52;;;;;;;;;;5085303;28;20008;-41
2021/11/26 03:36:37;;;;;;;49.83;9.65;;;;;;;;;;5083707;28;20036;-44
2021/11/26 03:39:05;;;;;;;45.75;9.25;;;;;;;;;;5086673;28;20024;-40
2021/11/26 03:41:32;;;;;;;37.88;8.98;;;;;;;;;;5081822;28;20031;-43
2021/11/26 03:43:59;;;;;;;46.83;8.23;;;;;;;;;;5085518;28;20029;-41
2021/11/26 03:46:26;;;;;;;38.53;7.22;;;;;;;;;;5085557;28;20031;-43
2021/11/26 03:48:53;;;;;;;41.95;8.15;;;;;;;;;;5083880;28;20028;-41
2021/11/26 03:51:20;;;;;;;50.33;7.22;;;;;;;;;;5083137;28;20024;-43
2021/11/26 03:53:47;;;;;;;42.90;8.65;;;;;;;;;;5086187;28;20107;-43
2021/11/26 03:56:14;;;;;;;37.55;7.35;;;;;;;;;;5086054;28;20059;-42
2021/11/26 03:58:42;;;;;;;47.17;8.65;;;;;;;;;;5086164;28;20429;-40
2021/11/26 04:01:08;;;;;;;35.15;7.65;;;;;;;;;;5086135;28;20090;-45
2021/11/26 04:03:35;;;;;;;38.78;7.20;;;;;;;;;;5083288;28;20048;-41
2021/11/26 04:06:02;;;;;;;41.55;7.30;;;;;;;;;;5078233;28;20020;-39
2021/11/26 04:08:29;;;;;;;41.58;6.72;;;;;;;;;;5082639;28;20016;-41
2021/11/26 04:10:56;;;;;;;37.50;6.68;;;;;;;;;;5069465;28;20029;-40
2021/11/26 04:13:23;;;;;;;40.40;6.03;;;;;;;;;;5066166;28;20025;-44
2021/11/26 04:15:51;;;;;;;33.85;7.50;;;;;;;;;;5053812;28;20025;-42
2021/11/26 04:18:19;;;;;;;46.72;7.22;;;;;;;;;;5051490;28;20094;-41
2021/11/26 04:20:46;;;;;;;40.63;7.68;;;;;;;;;;5053509;28;20457;-41
2021/11/26 04:23:13;;;;;;;34.70;6.00;;;;;;;;;;5053106;28;20540;-41
2021/11/26 04:25:40;;;;;;;23.35;5.07;;;;;;;;;;5050954;28;20021;-42
2021/11/26 04:28:07;;;;;;;47.42;7.82;;;;;;;;;;5053134;28;20036;-42
2021/11/26 04:30:34;;;;;;;37.25;7.20;;;;;;;;;;5052721;28;20033;-46
2021/11/26 04:33:01;;;;;;;39.00;6.97;;;;;;;;;;5052876;28;20029;-42
2021/11/26 04:35:28;;;;;;;30.38;5.63;;;;;;;;;;5052768;28;20076;-41
2021/11/26 04:37:56;;;;;;;25.77;4.20;;;;;;;;;;5052080;28;20460;-44
2021/11/26 04:40:23;;;;;;;19.45;3.83;;;;;;;;;;5052925;28;20484;-42
2021/11/26 04:42:50;;;;;;;21.63;4.55;;;;;;;;;;5052891;28;20388;-43
2021/11/26 04:45:17;;;;;;;29.67;4.38;;;;;;;;;;5052896;28;20048;-43
2021/11/26 04:47:44;;;;;;;25.75;4.40;;;;;;;;;;5052294;28;20078;-44
2021/11/26 04:50:12;;;;;;;18.25;3.50;;;;;;;;;;5052637;28;20021;-42
2021/11/26 04:52:39;;;;;;;19.55;4.13;;;;;;;;;;5052146;28;20056;-43
2021/11/26 04:55:07;;;;;;;18.98;3.60;;;;;;;;;;5052542;28;20099;-42
2021/11/26 04:57:34;;;;;;;21.35;3.58;;;;;;;;;;5052121;28;20029;-41
2021/11/26 05:00:01;;;;;;;17.58;3.58;;;;;;;;;;5051311;28;20029;-45
2021/11/26 05:02:28;;;;;;;17.00;3.35;;;;;;;;;;5052121;28;20094;-43
2021/11/26 05:04:55;;;;;;;20.80;3.72;;;;;;;;;;5051679;28;20408;-45
2021/11/26 05:07:23;;;;;;;20.73;3.90;;;;;;;;;;5051618;28;20041;-41
2021/11/26 05:09:52;;;;;;;15.55;3.67;;;;;;;;;;5052151;28;20040;-44
2021/11/26 05:12:19;;;;;;;25.48;3.40;;;;;;;;;;5052584;28;20634;-45
2021/11/26 05:14:46;;;;;;;21.27;3.55;;;;;;;;;;5052328;28;20032;-42
2021/11/26 05:17:13;;;;;;;17.77;3.35;;;;;;;;;;5050868;28;20032;-42
2021/11/26 05:19:40;;;;;;;14.70;2.75;;;;;;;;;;5051986;28;20025;-46
2021/11/26 05:22:07;;;;;;;11.52;2.80;;;;;;;;;;5051941;28;20029;-42
2021/11/26 05:24:34;;;;;;;20.52;3.28;;;;;;;;;;5051943;28;20037;-44
2021/11/26 05:27:01;;;;;;;13.20;2.90;;;;;;;;;;5050315;28;20021;-43
2021/11/26 05:29:28;;;;;;;15.88;3.17;;;;;;;;;;5051881;28;20029;-43
2021/11/26 05:31:55;;;;;;;15.88;3.17;;;;;;;;;;5051542;28;20031;-43
2021/11/26 05:34:22;;;;;;;10.70;2.78;;;;;;;;;;5051459;28;20033;-41
2021/11/26 05:36:49;;;;;;;20.98;3.95;;;;;;;;;;5051860;28;20028;-44
2021/11/26 05:39:16;;;;;;;15.15;2.72;;;;;;;;;;5051243;28;20025;-42
2021/11/26 05:41:43;;;;;;;15.30;2.90;;;;;;;;;;5051810;28;20025;-42
2021/11/26 05:44:10;;;;;;;16.25;3.10;;;;;;;;;;5051720;28;20029;-41
2021/11/26 05:46:37;;;;;;;15.35;2.78;;;;;;;;;;5051328;28;20536;-43
2021/11/26 05:49:04;;;;;;;12.05;3.20;;;;;;;;;;5051559;28;20029;-42
2021/11/26 05:51:31;;;;;;;13.25;2.75;;;;;;;;;;5051492;28;20040;-45
2021/11/26 05:53:58;;;;;;;19.02;3.00;;;;;;;;;;5050081;28;20025;-41
2021/11/26 05:56:25;;;;;;;12.25;2.55;;;;;;;;;;5049871;28;20021;-43
2021/11/26 05:58:52;;;;;;;13.70;2.70;;;;;;;;;;5050924;28;20078;-43
2021/11/26 06:01:19;;;;;;;10.63;2.47;;;;;;;;;;5051377;28;20025;-41
2021/11/26 06:03:46;;;;;;;11.25;1.98;;;;;;;;;;5050916;28;20060;-44
2021/11/26 06:06:13;;;;;;;8.82;1.88;;;;;;;;;;5051081;28;20028;-42
2021/11/26 06:08:40;;;;;;;9.55;2.33;;;;;;;;;;5050567;28;20025;-45
2021/11/26 06:11:07;;;;;;;12.07;2.35;;;;;;;;;;5051289;28;20048;-42
2021/11/26 06:13:34;;;;;;;13.10;2.15;;;;;;;;;;5051235;28;20044;-41
2021/11/26 06:16:01;;;;;;;10.73;2.20;;;;;;;;;;5051121;28;20349;-42
2021/11/26 06:18:28;;;;;;;7.03;1.80;;;;;;;;;;5049609;28;20028;-41
2021/11/26 06:20:55;;;;;;;12.60;1.77;;;;;;;;;;5050504;28;20027;-40
2021/11/26 06:23:22;;;;;;;5.80;1.90;;;;;;;;;;5051058;28;20037;-41
2021/11/26 06:25:49;;;;;;;10.70;2.13;;;;;;;;;;5050882;28;20089;-41
2021/11/26 06:28:16;;;;;;;7.40;1.90;;;;;;;;;;5050075;28;20025;-41
2021/11/26 06:30:43;;;;;;;13.57;2.42;;;;;;;;;;5050900;28;20021;-41
2021/11/26 06:33:10;;;;;;;7.80;2.25;;;;;;;;;;5050914;28;20067;-41
2021/11/26 06:35:37;;;;;;;8.15;1.85;;;;;;;;;;5049593;28;20480;-41
2021/11/26 06:38:04;;;;;;;9.27;1.75;;;;;;;;;;5049979;28;20028;-41
2021/11/26 06:40:31;;;;;;;8.07;1.92;;;;;;;;;;5050432;28;20025;-43
2021/11/26 06:42:58;;;;;;;7.30;1.80;;;;;;;;;;5032949;28;20029;-40
2021/11/26 06:45:25;;;;;;;11.68;2.25;;;;;;;;;;5050612;28;20119;-45
2021/11/26 06:47:53;;;;;;;6.22;2.10;;;;;;;;;;5049992;28;20029;-41
2021/11/26 06:50:20;;;;;;;15.80;2.55;;;;;;;;;;5050491;28;20112;-41
2021/11/26 06:52:47;;;;;;;5.55;1.98;;;;;;;;;;5050486;28;20433;-40
2021/11/26 06:55:14;;;;;;;9.43;2.05;;;;;;;;;;5051999;28;20043;-39
2021/11/26 06:57:41;;;;;;;10.75;1.80;;;;;;;;;;5050097;28;20033;-39
2021/11/26 07:00:13;;;;;;;8.95;1.85;;;;;;;;;;5051256;28;20025;-40
2021/11/26 07:02:40;;;;;;;7.88;2.15;;;;;;;;;;5051059;28;20053;-39
2021/11/26 07:05:07;;;;;;;8.45;1.75;;;;;;;;;;5051120;28;20040;-39
2021/11/26 07:07:34;;;;;;;8.15;1.55;;;;;;;;;;5049401;28;20029;-40
2021/11/26 07:10:02;;;;;;;10.23;1.63;;;;;;;;;;5050546;28;20399;-40
2021/11/26 07:12:29;;;;;;;6.07;1.73;;;;;;;;;;5051526;28;20052;-39
2021/11/26 07:14:56;;;;;;;9.68;2.20;;;;;;;;;;5051341;28;20045;-39
2021/11/26 07:17:23;;;;;;;8.05;1.73;;;;;;;;;;5050776;28;20476;-40
2021/11/26 07:19:50;;;;;;;6.63;1.70;;;;;;;;;;5049734;28;20535;-41
2021/11/26 07:22:18;;;;;;;8.88;1.60;;;;;;;;;;5050644;28;20053;-43
2021/11/26 07:24:46;;;;;;;7.40;1.33;;;;;;;;;;5050862;28;20048;-39
2021/11/26 07:27:14;;;;;;;4.30;1.45;;;;;;;;;;5050508;28;20478;-42
2021/11/26 07:29:41;;;;;;;8.45;1.33;;;;;;;;;;5050025;28;20017;-39
2021/11/26 07:32:08;;;;;;;6.28;1.60;;;;;;;;;;5050684;28;20033;-41
2021/11/26 07:34:36;;;;;;;9.32;1.77;;;;;;;;;;5050754;28;20519;-41
2021/11/26 07:37:03;;;;;;;3.85;1.30;;;;;;;;;;5050600;28;20380;-41
2021/11/26 07:39:35;;;;;;;6.22;1.35;;;;;;;;;;5049880;28;20430;-40
2021/11/26 07:42:03;;;;;;;5.68;1.30;;;;;;;;;;5050371;28;20078;-40
2021/11/26 07:44:31;;;;;;;4.40;1.42;;;;;;;;;;5050584;28;20523;-40
2021/11/26 07:46:58;;;;;;;7.25;1.52;;;;;;;;;;5049887;28;20031;-40
2021/11/26 07:49:28;;;;;;;8.23;1.77;;;;;;;;;;5050426;28;20480;-41
2021/11/26 07:51:57;;;;;;;6.22;1.40;;;;;;;;;;5054137;28;20044;-40
2021/11/26 07:54:24;;;;;;;5.13;1.50;;;;;;;;;;5054234;28;20400;-40
2021/11/26 07:56:51;;;;;;;5.00;1.65;;;;;;;;;;5054146;28;20515;-40
2021/11/26 07:59:18;;;;;;;4.82;1.50;;;;;;;;;;5053403;28;20107;-41
2021/11/26 08:01:45;;;;;;;3.78;0.88;;;;;;;;;;5053761;28;20013;-39
2021/11/26 08:04:14;;;;;;;5.40;1.58;;;;;;;;;;5053734;28;20751;-40
2021/11/26 08:06:46;;;;;;;5.25;1.23;;;;;;;;;;5053308;28;20071;-40
2021/11/26 08:09:14;;;;;;;4.15;1.75;;;;;;;;;;5053606;28;20021;-40
2021/11/26 08:11:42;;;;;;;7.05;1.40;;;;;;;;;;5053943;28;20017;-39
2021/11/26 08:14:09;;;;;;;6.57;1.20;;;;;;;;;;5052305;28;20070;-39
2021/11/26 08:16:36;;;;;;;8.50;1.35;;;;;;;;;;5053718;28;20017;-39
2021/11/26 08:19:05;;;;;;;4.63;1.20;;;;;;;;;;5052930;28;20036;-40
2021/11/26 08:21:33;;;;;;;4.05;1.08;;;;;;;;;;5052898;28;20365;-39
2021/11/26 08:24:01;;;;;;;6.13;1.20;;;;;;;;;;5053848;28;20056;-40
2021/11/26 08:26:28;;;;;;;9.35;1.75;;;;;;;;;;5053628;28;20104;-40
2021/11/26 08:28:56;;;;;;;7.50;1.15;;;;;;;;;;5053463;28;20033;-40
2021/11/26 08:31:24;;;;;;;7.93;1.20;;;;;;;;;;5051418;28;20392;-40
2021/11/26 08:33:51;;;;;;;4.47;1.00;;;;;;;;;;5053573;28;20074;-42
2021/11/26 08:36:18;;;;;;;9.00;0.95;;;;;;;;;;5053414;28;20033;-40
2021/11/26 08:38:45;;;;;;;6.35;1.10;;;;;;;;;;5052649;28;20025;-40
2021/11/26 08:41:12;;;;;;;9.52;1.50;;;;;;;;;;5052925;28;20029;-40
2021/11/26 08:43:39;;;;;;;5.43;1.48;;;;;;;;;;5053101;28;20564;-42
2021/11/26 08:46:06;;;;;;;5.72;1.20;;;;;;;;;;5052764;28;20053;-41
2021/11/26 08:48:33;;;;;;;3.28;1.17;;;;;;;;;;5053036;28;20029;-41
2021/11/26 08:51:00;;;;;;;6.05;1.25;;;;;;;;;;5052643;28;20103;-40
2021/11/26 08:53:27;;;;;;;7.57;1.20;;;;;;;;;;5053048;28;20449;-41
2021/11/26 08:55:55;;;;;;;3.63;1.10;;;;;;;;;;5053128;28;20099;-40
2021/11/26 08:58:22;;;;;;;5.40;1.30;;;;;;;;;;5052672;28;20037;-40
2021/11/26 09:00:49;;;;;;;5.72;1.23;;;;;;;;;;5051858;28;20028;-39
2021/11/26 09:03:16;;;;;;;5.78;1.70;;;;;;;;;;5052768;28;20076;-41
2021/11/26 09:05:44;;;;;;;9.75;2.03;;;;;;;;;;5052863;28;20029;-40
2021/11/26 09:08:15;;;;;;;6.07;1.85;;;;;;;;;;5052639;28;20025;-40
2021/11/26 09:10:43;;;;;;;13.63;2.65;;;;;;;;;;5051953;28;20547;-40
2021/11/26 09:13:11;;;;;;;6.40;2.33;;;;;;;;;;5052569;28;20040;-41
2021/11/26 09:15:39;;;;;;;7.25;2.80;;;;;;;;;;5052771;28;20110;-40
2021/11/26 09:18:07;;;;;;;5.97;2.67;;;;;;;;;;5052405;28;20542;-41
2021/11/26 09:20:34;;;;;;;10.82;2.95;;;;;;;;;;5051823;28;20025;-40
2021/11/26 09:23:01;;;;;;;12.90;4.07;;;;;;;;;;5051529;28;20044;-40
2021/11/26 09:25:29;;;;;;;15.93;4.40;;;;;;;;;;5052221;28;20130;-40
2021/11/26 09:27:56;;;;;;;10.10;3.85;;;;;;;;;;5050855;28;20102;-40
2021/11/26 09:30:24;;;;;;;10.73;3.40;;;;;;;;;;5051056;28;20032;-40
2021/11/26 09:32:52;;;;;;;11.00;2.50;;;;;;;;;;5052363;28;20029;-40
2021/11/26 09:35:19;;;;;;;11.02;3.13;;;;;;;;;;5050749;28;20434;-40
2021/11/26 09:37:46;;;;;;;7.63;3.53;;;;;;;;;;5052059;28;20017;-40
2021/11/26 09:40:13;;;;;;;11.18;3.65;;;;;;;;;;5050918;28;20047;-39
2021/11/26 09:42:44;;;;;;;11.82;4.03;;;;;;;;;;5051141;28;20025;-40
2021/11/26 09:45:13;;;;;;;14.38;4.55;;;;;;;;;;5051297;28;20025;-39
2021/11/26 09:47:40;;;;;;;10.43;5.63;;;;;;;;;;5050593;28;20025;-39
2021/11/26 09:50:07;;;;;;;11.18;4.30;;;;;;;;;;5051329;28;20025;-40
2021/11/26 09:52:39;;;;;;;10.10;4.47;;;;;;;;;;5051138;28;20048;-39
2021/11/26 09:55:06;;;;;;;10.43;4.38;;;;;;;;;;5051097;28;20017;-39
2021/11/26 09:57:33;;;;;;;11.13;3.83;;;;;;;;;;5051111;28;20021;-41
2021/11/26 10:00:00;;;;;;;8.80;3.88;;;;;;;;;;5051129;28;20048;-39
2021/11/26 10:02:27;;;;;;;17.85;8.80;;;;;;;;;;5050736;28;20032;-40
2021/11/26 10:05:12;;;;;;;23.85;16.77;;;;;;;;;;5050371;28;20396;-40
2021/11/26 10:07:50;;;;;;;17.33;14.85;;;;;;;;;;5049467;28;20021;-40
2021/11/26 10:10:25;;;;;;;19.40;12.43;;;;;;;;;;5051651;28;20025;-40
2021/11/26 10:13:06;;;;;;;11.82;8.55;;;;;;;;;;5050912;28;20079;-38
2021/11/26 10:15:44;;;;;;;13.43;6.60;;;;;;;;;;5051627;28;20108;-39
2021/11/26 10:18:17;;;;;;;10.43;5.82;;;;;;;;;;5050958;28;20025;-39
2021/11/26 10:21:04;;;;;;;11.30;4.20;;;;;;;;;;5051093;28;20021;-40
2021/11/26 10:23:36;;;;;;;10.38;3.50;;;;;;;;;;5049678;28;20087;-40
2021/11/26 10:26:17;;;;;;;7.80;2.42;;;;;;;;;;5051141;28;20100;-40
2021/11/26 10:28:48;;;;;;;11.73;2.65;;;;;;;;;;5051153;28;20029;-41
2021/11/26 10:31:23;;;;;;;11.85;3.28;;;;;;;;;;5051100;28;20017;-40
2021/11/26 10:33:50;;;;;;;10.07;2.90;;;;;;;;;;5049280;28;20021;-40
2021/11/26 10:36:17;;;;;;;10.68;3.35;;;;;;;;;;5051037;28;20095;-40
2021/11/26 10:38:44;;;;;;;6.40;2.38;;;;;;;;;;5050864;28;20523;-40
2021/11/26 10:41:15;;;;;;;7.38;2.10;;;;;;;;;;5048232;28;20120;-40
2021/11/26 10:51:54;;;;;;;10.95;2.08;;;;;;;;;;5051104;28;20033;-41
2021/11/26 10:59:39;;;;;;;11.95;2.10;;;;;;;;;;5051296;28;20104;-40
2021/11/26 11:02:07;;;;;;;11.80;1.90;;;;;;;;;;5050135;28;20075;-40
2021/11/26 11:04:35;;;;;;;15.50;1.88;;;;;;;;;;5050707;28;20458;-41
2021/11/26 11:07:03;;;;;;;15.50;2.25;;;;;;;;;;5051077;28;20017;-41
2021/11/26 11:09:44;;;;;;;14.50;2.45;;;;;;;;;;5050415;28;20064;-39
2021/11/26 11:12:11;;;;;;;19.38;2.30;;;;;;;;;;5049209;28;20126;-41
2021/11/26 11:14:39;;;;;;;12.82;1.85;;;;;;;;;;5050714;28;20025;-40
2021/11/26 11:17:06;;;;;;;9.10;0.90;;;;;;;;;;5050180;28;20021;-42
2021/11/26 11:19:34;;;;;;;8.23;0.98;;;;;;;;;;5050388;28;20056;-43
2021/11/26 11:22:01;;;;;;;17.27;1.50;;;;;;;;;;5049491;28;20056;-41
2021/11/26 11:24:29;;;;;;;37.72;1.80;;;;;;;;;;5050485;28;20166;-41
2021/11/26 11:26:56;;;;;;;34.45;2.92;;;;;;;;;;5054517;28;20354;-39
2021/11/26 11:29:25;;;;;;;89.03;8.60;;;;;;;;;;5054199;28;20025;-39
2021/11/26 11:31:53;;;;;;;38.60;5.22;;;;;;;;;;5053831;28;20025;-38
2021/11/26 11:34:22;;;;;;;42.10;5.53;;;;;;;;;;5054217;28;20117;-40
2021/11/26 11:36:52;;;;;;;22.88;3.70;;;;;;;;;;5054385;28;20071;-39
2021/11/26 11:39:19;;;;;;;27.27;3.50;;;;;;;;;;5054470;28;20025;-39
2021/11/26 11:41:46;;;;;;;32.15;3.25;;;;;;;;;;5053514;28;20457;-40
2021/11/26 11:44:33;;;;;;;22.13;2.85;;;;;;;;;;5053625;28;20037;-41
2021/11/26 11:47:01;;;;;;;36.25;3.78;;;;;;;;;;5051330;28;20025;-42
2021/11/26 11:49:28;;;;;;;180.45;18.35;;;;;;;;;;5053956;28;20025;-38
2021/11/26 11:52:04;;;;;;;193.20;12.63;;;;;;;;;;5053762;28;20443;-38
2021/11/26 11:54:42;;;;;;;59.40;6.25;;;;;;;;;;5054296;28;20087;-37
2021/11/26 11:57:20;;;;;;;39.38;3.92;;;;;;;;;;5054151;28;20388;-40
2021/11/26 11:59:49;;;;;;;17.40;2.47;;;;;;;;;;5054210;28;20025;-38
2021/11/26 12:02:24;;;;;;;16.15;1.77;;;;;;;;;;5053117;28;20032;-40
2021/11/26 12:04:53;;;;;;;12.90;1.67;;;;;;;;;;5052572;28;20403;-39
2021/11/26 12:07:25;;;;;;;13.02;1.63;;;;;;;;;;5053643;28;20036;-40
2021/11/26 12:10:02;;;;;;;11.60;1.60;;;;;;;;;;5053368;28;20052;-41
2021/11/26 12:12:29;;;;;;;24.85;1.70;;;;;;;;;;5053719;28;20484;-40
2021/11/26 12:14:57;;;;;;;12.93;1.17;;;;;;;;;;5053617;28;20120;-39
2021/11/26 12:17:30;;;;;;;14.50;1.10;;;;;;;;;;5053269;28;20025;-40
2021/11/26 12:20:00;;;;;;;26.17;1.48;;;;;;;;;;5053229;28;20068;-40
2021/11/26 12:22:34;;;;;;;9.50;0.90;;;;;;;;;;5052981;28;20022;-40
2021/11/26 12:25:03;;;;;;;13.52;1.42;;;;;;;;;;5053704;28;20086;-39
2021/11/26 12:27:38;;;;;;;11.40;1.23;;;;;;;;;;5053791;28;20041;-40
2021/11/26 12:30:16;;;;;;;19.38;1.80;;;;;;;;;;5053485;28;20112;-41
2021/11/26 12:32:43;;;;;;;17.92;1.67;;;;;;;;;;5053281;28;20032;-40
2021/11/26 12:35:12;;;;;;;12.23;1.10;;;;;;;;;;5052823;28;20029;-41
2021/11/26 12:37:39;;;;;;;11.15;1.25;;;;;;;;;;5053425;28;20032;-39
2021/11/26 12:40:24;;;;;;;21.92;1.55;;;;;;;;;;5053286;28;20063;-43
2021/11/26 12:43:01;;;;;;;25.35;1.80;;;;;;;;;;5053194;28;20025;-40
2021/11/26 12:45:34;;;;;;;25.60;2.33;;;;;;;;;;5052691;28;20493;-39
2021/11/26 12:48:10;;;;;;;;;;;;;;;;;;5053693;28;20028;-39
2021/11/26 12:53:25;;;;;;;8.60;1.10;;;;;;;;;;5053049;28;20039;-43
2021/11/26 12:56:00;;;;;;;16.38;1.85;;;;;;;;;;5052630;28;20064;-47
2021/11/26 12:58:28;;;;;;;15.05;1.10;;;;;;;;;;5053005;28;20055;-44
2021/11/26 13:01:00;;;;;;;10.00;1.15;;;;;;;;;;5052773;28;20013;-48
2021/11/26 13:03:30;;;;;;;16.05;1.90;;;;;;;;;;5052185;28;20587;-44
2021/11/26 13:05:58;;;;;;;24.13;1.42;;;;;;;;;;5052756;28;20065;-42
2021/11/26 13:08:25;;;;;;;20.10;1.52;;;;;;;;;;5052854;28;20020;-45
2021/11/26 13:10:52;;;;;;;17.50;1.88;;;;;;;;;;5052929;28;20048;-46
2021/11/26 13:13:27;;;;;;;14.70;1.60;;;;;;;;;;5052441;28;20028;-43
2021/11/26 13:15:54;;;;;;;11.20;1.40;;;;;;;;;;5051933;28;20064;-44
2021/11/26 13:18:26;;;;;;;15.70;1.83;;;;;;;;;;5052464;28;20021;-39
2021/11/26 13:20:55;;;;;;;13.23;0.90;;;;;;;;;;5052509;28;20021;-42
2021/11/26 13:23:28;;;;;;;14.00;1.05;;;;;;;;;;5051993;28;20040;-44
2021/11/26 13:25:56;;;;;;;13.07;1.45;;;;;;;;;;5051027;28;20023;-46
2021/11/26 13:28:25;;;;;;;15.00;1.90;;;;;;;;;;5052584;28;20017;-44
2021/11/26 13:30:53;;;;;;;13.18;2.00;;;;;;;;;;5052273;28;20029;-45
2021/11/26 13:33:22;;;;;;;14.10;1.50;;;;;;;;;;5051839;28;20060;-46
2021/11/26 13:35:50;;;;;;;18.15;1.40;;;;;;;;;;5051855;28;20484;-43
2021/11/26 13:38:22;;;;;;;17.13;1.65;;;;;;;;;;5052184;28;20111;-46
2021/11/26 13:40:50;;;;;;;14.27;2.28;;;;;;;;;;5052005;28;20029;-45
2021/11/26 13:43:24;;;;;;;20.20;2.25;;;;;;;;;;5044755;28;20033;-43
2021/11/26 13:45:51;;;;;;;13.93;1.55;;;;;;;;;;5041681;28;20025;-40
2021/11/26 13:48:18;;;;;;;16.83;1.65;;;;;;;;;;5040290;28;20550;-46
2021/11/26 13:50:45;;;;;;;15.10;1.40;;;;;;;;;;5040677;28;20026;-40
2021/11/26 13:53:12;;;;;;;14.43;1.60;;;;;;;;;;5041659;28;20655;-39
2021/11/26 13:55:39;;;;;;;14.50;2.05;;;;;;;;;;5048829;28;20100;-39
2021/11/26 13:58:11;;;;;;;7.70;1.30;;;;;;;;;;5041984;28;20455;-43
2021/11/26 14:00:43;;;;;;;13.30;1.40;;;;;;;;;;5039428;28;20029;-43
2021/11/26 14:03:10;;;;;;;22.88;1.77;;;;;;;;;;5036959;28;20269;-40
2021/11/26 14:05:38;;;;;;;10.73;1.33;;;;;;;;;;5050794;28;20025;-38
2021/11/26 14:08:06;;;;;;;12.43;1.50;;;;;;;;;;5048164;28;20022;-38
2021/11/26 14:10:34;;;;;;;7.90;1.15;;;;;;;;;;5055792;28;20028;-39
2021/11/26 14:13:03;;;;;;;22.63;1.80;;;;;;;;;;5042096;28;20029;-37
2021/11/26 14:15:30;;;;;;;15.77;1.48;;;;;;;;;;5044191;28;20746;-37
2021/11/26 14:17:57;;;;;;;20.77;1.88;;;;;;;;;;5041353;28;20104;-37
2021/11/26 14:20:24;;;;;;;16.20;2.05;;;;;;;;;;5043856;28;20045;-40
2021/11/26 14:22:53;;;;;;;16.83;1.65;;;;;;;;;;5050086;28;20024;-40
2021/11/26 14:25:21;;;;;;;16.75;1.77;;;;;;;;;;5046706;28;20021;-39
2021/11/26 14:27:48;;;;;;;15.38;1.80;;;;;;;;;;5045354;28;20025;-41
2021/11/26 14:30:18;;;;;;;19.67;1.95;;;;;;;;;;5047341;28;20485;-41
2021/11/26 14:33:07;;;;;;;13.40;1.38;;;;;;;;;;5054570;28;20432;-40
2021/11/26 14:35:39;;;;;;;15.02;1.67;;;;;;;;;;5039334;28;20029;-40
2021/11/26 14:38:07;;;;;;;19.33;1.73;;;;;;;;;;5040338;28;20457;-38
2021/11/26 14:40:35;;;;;;;15.90;1.70;;;;;;;;;;5040709;28;20477;-39
2021/11/26 14:43:11;;;;;;;16.13;1.63;;;;;;;;;;5045086;28;20028;-39
2021/11/26 14:45:45;;;;;;;31.23;2.45;;;;;;;;;;5044886;28;20029;-37
2021/11/26 14:48:14;;;;;;;16.50;2.00;;;;;;;;;;5041169;28;20395;-40
2021/11/26 14:50:41;;;;;;;10.65;1.63;;;;;;;;;;5047257;28;20112;-38
2021/11/26 14:53:11;;;;;;;12.60;1.45;;;;;;;;;;5047413;28;20074;-40
2021/11/26 14:55:38;;;;;;;17.77;1.70;;;;;;;;;;5044999;28;20150;-39